createdAt,value
2023-06-08T00:01:04.246Z,11.40
2023-06-08T00:03:34.806Z,11.34
2023-06-08T00:06:10.027Z,11.38
2023-06-08T00:08:41.441Z,11.09
2023-06-08T00:11:12.913Z,11.51
2023-06-08T00:13:43.436Z,11.58
2023-06-08T00:16:15.222Z,11.45
2023-06-08T00:18:46.823Z,11.60
2023-06-08T00:21:19.431Z,11.56
2023-06-08T00:23:49.872Z,11.75
2023-06-08T00:26:20.567Z,11.93
2023-06-08T00:28:51.685Z,11.59
2023-06-08T00:31:22.687Z,11.95
2023-06-08T00:33:53.266Z,12.19
2023-06-08T00:36:25.469Z,12.32
2023-06-08T00:38:56.054Z,12.51
2023-06-08T00:41:29.722Z,12.67
2023-06-08T00:44:00.760Z,12.56
2023-06-08T00:46:32.676Z,13.02
2023-06-08T00:49:04.245Z,13.19
2023-06-08T00:51:39.653Z,13.33
2023-06-08T00:54:12.198Z,13.34
2023-06-08T00:56:44.585Z,13.00
2023-06-08T00:59:16.508Z,13.07
2023-06-08T01:01:49.508Z,13.26
2023-06-08T01:04:20.172Z,13.60
2023-06-08T01:06:56.954Z,13.82
2023-06-08T01:09:33.331Z,13.95
2023-06-08T01:12:17.318Z,13.94
2023-06-08T01:14:58.661Z,13.92
2023-06-08T01:17:43.059Z,13.91
2023-06-08T01:20:36.928Z,14.17
2023-06-08T01:23:29.354Z,14.20
2023-06-08T01:26:02.768Z,14.15
2023-06-08T01:28:33.742Z,14.19
2023-06-08T01:31:04.925Z,14.10
2023-06-08T01:33:35.606Z,14.24
2023-06-08T01:36:12.401Z,14.36
2023-06-08T01:38:51.990Z,14.66
2023-06-08T01:41:28.485Z,14.52
2023-06-08T01:44:02.351Z,14.92
2023-06-08T01:46:34.671Z,15.03
2023-06-08T01:49:07.417Z,15.06
2023-06-08T01:51:38.474Z,15.17
2023-06-08T01:54:10.174Z,14.97
2023-06-08T01:56:42.397Z,15.22
2023-06-08T01:59:13.065Z,15.33
2023-06-08T02:01:43.591Z,15.37
2023-06-08T02:04:14.180Z,15.48
2023-06-08T02:06:44.791Z,15.70
2023-06-08T02:09:15.406Z,15.63
2023-06-08T02:11:47.654Z,15.58
2023-06-08T02:14:18.385Z,15.76
2023-06-08T02:16:49.409Z,15.89
2023-06-08T02:19:21.600Z,15.92
2023-06-08T02:21:52.153Z,16.29
2023-06-08T02:24:22.728Z,16.43
2023-06-08T02:26:56.757Z,16.55
2023-06-08T02:29:28.601Z,16.51
2023-06-08T02:31:59.022Z,16.57
2023-06-08T02:34:29.555Z,16.89
2023-06-08T02:37:00.022Z,17.02
2023-06-08T02:39:30.540Z,17.18
2023-06-08T02:42:03.322Z,17.16
2023-06-08T02:44:33.837Z,17.24
2023-06-08T02:47:04.428Z,17.39
2023-06-08T02:49:34.936Z,17.47
2023-06-08T02:52:05.564Z,17.46
2023-06-08T02:54:36.390Z,17.39
2023-06-08T02:57:09.108Z,17.58
2023-06-08T02:59:39.938Z,17.71
2023-06-08T03:02:10.511Z,17.60
2023-06-08T03:04:45.531Z,17.64
2023-06-08T03:07:17.445Z,17.39
2023-06-08T03:09:50.836Z,17.64
2023-06-08T03:12:23.200Z,17.77
2023-06-08T03:14:55.108Z,17.97
2023-06-08T03:17:26.571Z,18.23
2023-06-08T03:19:57.419Z,18.33
2023-06-08T03:22:28.017Z,18.27
2023-06-08T03:25:00.756Z,18.21
2023-06-08T03:27:33.043Z,18.30
2023-06-08T03:30:03.679Z,18.65
2023-06-08T03:32:35.168Z,18.87
2023-06-08T03:35:06.155Z,18.76
2023-06-08T03:37:36.826Z,18.56
2023-06-08T03:40:08.234Z,18.52
2023-06-08T03:42:40.311Z,18.68
2023-06-08T03:45:11.458Z,18.65
2023-06-08T03:47:42.016Z,18.52
2023-06-08T03:50:13.865Z,18.40
2023-06-08T03:52:45.254Z,18.38
2023-06-08T03:55:15.823Z,18.54
2023-06-08T03:57:48.493Z,18.44
2023-06-08T04:00:19.499Z,18.62
2023-06-08T04:02:50.304Z,18.50
2023-06-08T04:05:21.000Z,18.44
2023-06-08T04:07:53.294Z,18.43
2023-06-08T04:10:24.195Z,18.43
2023-06-08T04:12:56.474Z,18.66
2023-06-08T04:15:27.618Z,18.67
2023-06-08T04:17:58.148Z,18.57
2023-06-08T04:20:29.363Z,18.49
2023-06-08T04:23:00.193Z,18.38
2023-06-08T04:25:30.742Z,18.32
2023-06-08T04:28:03.068Z,18.18
2023-06-08T04:30:33.608Z,18.21
2023-06-08T04:33:04.266Z,18.31
2023-06-08T04:35:35.107Z,18.19
2023-06-08T04:38:05.797Z,18.06
2023-06-08T04:40:36.600Z,17.91
2023-06-08T04:43:10.710Z,17.69
2023-06-08T04:45:41.286Z,17.63
2023-06-08T04:48:13.455Z,17.51
2023-06-08T04:50:47.443Z,17.59
2023-06-08T04:53:18.472Z,17.78
2023-06-08T04:55:49.005Z,17.58
2023-06-08T04:58:21.311Z,17.77
2023-06-08T05:00:52.508Z,17.52
2023-06-08T05:03:23.510Z,17.48
2023-06-08T05:05:54.519Z,17.63
2023-06-08T05:08:25.200Z,17.63
2023-06-08T05:10:55.739Z,17.73
2023-06-08T05:13:27.981Z,17.58
2023-06-08T05:16:00.648Z,17.55
2023-06-08T05:18:32.271Z,17.29
2023-06-08T05:21:02.793Z,17.02
2023-06-08T05:23:33.326Z,16.89
2023-06-08T05:26:03.998Z,16.83
2023-06-08T05:28:36.169Z,17.04
2023-06-08T05:31:06.660Z,16.57
2023-06-08T05:33:37.349Z,16.98
2023-06-08T05:36:08.934Z,16.91
2023-06-08T05:38:39.499Z,16.87
2023-06-08T05:41:19.078Z,16.77
2023-06-08T05:43:51.284Z,16.83
2023-06-08T05:46:21.820Z,16.83
2023-06-08T05:48:52.393Z,17.04
2023-06-08T05:51:23.013Z,17.21
2023-06-08T05:53:53.718Z,17.14
2023-06-08T05:56:24.254Z,17.06
2023-06-08T05:58:56.512Z,17.30
2023-06-08T06:01:27.214Z,17.03
2023-06-08T06:03:57.976Z,16.74
2023-06-08T06:06:28.597Z,16.64
2023-06-08T06:08:59.088Z,16.51
2023-06-08T06:11:29.594Z,16.47
2023-06-08T06:14:02.602Z,16.41
2023-06-08T06:16:33.258Z,16.58
2023-06-08T06:19:04.161Z,16.72
2023-06-08T06:21:34.798Z,16.42
2023-06-08T06:24:05.525Z,16.19
2023-06-08T06:26:36.165Z,15.89
2023-06-08T06:29:08.217Z,15.72
2023-06-08T06:31:38.885Z,15.72
2023-06-08T06:34:09.518Z,15.80
2023-06-08T06:36:40.364Z,15.67
2023-06-08T06:39:13.723Z,15.60
2023-06-08T06:41:44.773Z,15.64
2023-06-08T06:44:16.993Z,15.61
2023-06-08T06:46:47.681Z,15.56
2023-06-08T06:49:18.188Z,15.57
2023-06-08T06:51:48.745Z,15.49
2023-06-08T06:54:19.293Z,15.47
2023-06-08T06:56:49.926Z,15.44
2023-06-08T06:59:22.733Z,15.29
2023-06-08T07:01:53.404Z,15.21
2023-06-08T07:04:26.671Z,15.01
2023-06-08T07:06:58.415Z,14.96
2023-06-08T07:09:29.025Z,14.77
2023-06-08T07:12:14.422Z,14.73
2023-06-08T07:14:48.513Z,14.59
2023-06-08T07:17:19.193Z,14.34
2023-06-08T07:19:50.689Z,14.30
2023-06-08T07:22:48.574Z,14.30
2023-06-08T07:25:32.857Z,14.29
2023-06-08T07:28:06.575Z,14.15
2023-06-08T07:30:39.447Z,13.99
2023-06-08T07:33:10.633Z,14.06
2023-06-08T07:35:41.158Z,14.07
2023-06-08T07:38:12.341Z,14.04
2023-06-08T07:40:42.767Z,14.08
2023-06-08T07:43:13.290Z,13.75
2023-06-08T07:45:45.572Z,13.95
2023-06-08T07:48:16.117Z,13.92
2023-06-08T07:50:46.667Z,13.88
2023-06-08T07:53:17.947Z,13.67
2023-06-08T07:55:48.489Z,13.68
2023-06-08T07:58:19.007Z,13.45
2023-06-08T08:00:51.044Z,13.64
2023-06-08T08:03:21.659Z,13.88
2023-06-08T08:05:52.361Z,14.03
2023-06-08T08:08:23.141Z,14.06
2023-06-08T08:10:53.605Z,14.07
2023-06-08T08:13:24.198Z,14.15
2023-06-08T08:15:56.640Z,14.09
2023-06-08T08:18:27.354Z,14.12
2023-06-08T08:20:57.915Z,13.94
2023-06-08T08:23:28.611Z,13.75
2023-06-08T08:25:59.359Z,13.63
2023-06-08T08:28:31.820Z,13.55
2023-06-08T08:31:04.384Z,13.60
2023-06-08T08:33:35.060Z,13.59
2023-06-08T08:36:05.792Z,13.55
2023-06-08T08:38:36.542Z,13.48
2023-06-08T08:41:10.961Z,13.26
2023-06-08T08:43:51.108Z,13.33
2023-06-08T08:46:27.240Z,13.17
2023-06-08T08:49:04.547Z,12.68
2023-06-08T08:51:40.366Z,13.12
2023-06-08T08:54:12.029Z,13.06
2023-06-08T08:56:43.049Z,13.04
2023-06-08T08:59:15.752Z,12.89
2023-06-08T09:01:48.361Z,12.72
2023-06-08T09:04:23.091Z,12.35
2023-06-08T09:06:57.591Z,12.42
2023-06-08T09:09:31.398Z,12.07
2023-06-08T09:12:02.736Z,12.13
2023-06-08T09:14:34.174Z,11.71
2023-06-08T09:17:09.225Z,11.68
2023-06-08T09:19:54.928Z,11.56
2023-06-08T09:22:32.934Z,11.38
2023-06-08T09:25:07.055Z,11.49
2023-06-08T09:27:39.579Z,11.39
2023-06-08T09:30:33.518Z,11.37
2023-06-08T09:33:50.848Z,10.98
2023-06-08T09:36:25.750Z,10.76
2023-06-08T09:39:06.486Z,10.47
2023-06-08T09:41:39.248Z,10.30
2023-06-08T09:44:23.294Z,10.30
2023-06-08T09:46:54.709Z,10.29
2023-06-08T09:50:13.812Z,10.24
2023-06-08T09:52:55.772Z,10.26
2023-06-08T09:56:14.257Z,10.13
2023-06-08T09:59:43.831Z,9.98
2023-06-08T10:02:23.811Z,9.89
2023-06-08T10:05:00.207Z,9.69
2023-06-08T10:07:39.255Z,9.40
2023-06-08T10:10:21.622Z,9.61
2023-06-08T10:12:56.059Z,9.41
2023-06-08T10:15:27.890Z,9.39
2023-06-08T10:18:04.607Z,9.61
2023-06-08T10:20:43.457Z,9.62
2023-06-08T10:23:18.944Z,9.49
2023-06-08T10:25:52.905Z,9.40
2023-06-08T10:28:30.271Z,9.39
2023-06-08T10:31:05.443Z,9.32
2023-06-08T10:33:44.804Z,9.28
2023-06-08T10:36:17.267Z,9.34
2023-06-08T10:39:14.262Z,9.31
2023-06-08T10:41:49.436Z,8.95
2023-06-08T10:44:31.931Z,9.19
2023-06-08T10:47:05.131Z,9.02
2023-06-08T10:49:38.946Z,8.78
2023-06-08T10:52:12.869Z,9.17
2023-06-08T10:55:32.636Z,9.13
2023-06-08T10:58:10.045Z,9.10
2023-06-08T11:00:50.090Z,9.09
2023-06-08T11:03:24.346Z,9.18
2023-06-08T11:05:57.191Z,9.05
2023-06-08T11:08:30.900Z,9.19
2023-06-08T11:11:02.606Z,9.16
2023-06-08T11:13:36.313Z,9.09
2023-06-08T11:16:08.432Z,9.06
2023-06-08T11:18:39.709Z,8.97
2023-06-08T11:21:13.896Z,8.92
2023-06-08T11:23:47.156Z,8.91
2023-06-08T11:26:19.094Z,8.89
2023-06-08T11:28:51.416Z,8.65
2023-06-08T11:31:24.876Z,8.63
2023-06-08T11:33:58.455Z,8.64
2023-06-08T11:36:30.425Z,8.49
2023-06-08T11:39:05.456Z,8.74
2023-06-08T11:41:36.734Z,8.64
2023-06-08T11:44:08.868Z,8.68
2023-06-08T11:46:41.334Z,8.66
2023-06-08T11:49:13.487Z,8.67
2023-06-08T11:51:51.721Z,8.57
2023-06-08T11:54:25.010Z,7.93
2023-06-08T11:56:56.758Z,8.69
2023-06-08T11:59:30.148Z,8.64
2023-06-08T12:02:03.441Z,8.63
2023-06-08T12:04:35.538Z,8.69
2023-06-08T12:07:36.758Z,8.71
2023-06-08T12:10:11.391Z,8.63
2023-06-08T12:12:44.086Z,8.67
2023-06-08T12:15:20.809Z,8.59
2023-06-08T12:17:52.826Z,8.68
2023-06-08T12:20:24.331Z,8.75
2023-06-08T12:22:55.663Z,8.73
2023-06-08T12:25:28.886Z,8.73
2023-06-08T12:28:03.658Z,8.67
2023-06-08T12:30:35.448Z,8.37
2023-06-08T12:33:08.257Z,8.63
2023-06-08T12:35:39.770Z,8.60
2023-06-08T12:38:11.389Z,8.63
2023-06-08T12:40:49.574Z,8.59
2023-06-08T12:43:21.677Z,8.54
2023-06-08T12:45:54.227Z,8.53
2023-06-08T12:48:25.942Z,8.11
2023-06-08T12:50:59.673Z,8.54
2023-06-08T12:53:32.322Z,8.55
2023-06-08T12:56:05.267Z,8.58
2023-06-08T12:58:36.882Z,8.61
2023-06-08T13:01:08.422Z,8.63
2023-06-08T13:03:41.966Z,8.63
2023-06-08T13:06:13.526Z,8.63
2023-06-08T13:08:45.056Z,8.60
2023-06-08T13:11:18.880Z,8.54
2023-06-08T13:13:50.905Z,8.48
2023-06-08T13:16:22.587Z,8.47
2023-06-08T13:18:54.327Z,8.49
2023-06-08T13:21:25.826Z,8.48
2023-06-08T13:23:57.689Z,8.49
2023-06-08T13:26:31.175Z,8.50
2023-06-08T13:29:05.157Z,8.46
2023-06-08T13:31:36.960Z,8.50
2023-06-08T13:34:11.963Z,8.49
2023-06-08T13:36:44.534Z,8.43
2023-06-08T13:39:16.036Z,8.51
2023-06-08T13:41:49.399Z,8.42
2023-06-08T13:44:21.218Z,8.35
2023-06-08T13:46:52.825Z,8.31
2023-06-08T13:49:24.379Z,8.00
2023-06-08T13:51:58.778Z,8.32
2023-06-08T13:54:34.026Z,8.30
2023-06-08T13:57:08.057Z,8.25
2023-06-08T13:59:39.592Z,8.30
2023-06-08T14:02:10.980Z,8.27
2023-06-08T14:04:43.226Z,8.26
2023-06-08T14:07:14.812Z,8.20
2023-06-08T14:09:48.294Z,8.20
2023-06-08T14:12:21.897Z,8.20
2023-06-08T14:14:53.465Z,8.13
2023-06-08T14:17:24.935Z,8.24
2023-06-08T14:19:56.602Z,8.31
2023-06-08T14:22:28.056Z,8.36
2023-06-08T14:24:59.973Z,8.36
2023-06-08T14:27:33.358Z,8.31
2023-06-08T14:30:05.414Z,8.45
2023-06-08T14:32:37.462Z,8.49
2023-06-08T14:35:10.444Z,8.48
2023-06-08T14:37:42.017Z,8.37
2023-06-08T14:40:14.645Z,8.37
2023-06-08T14:42:50.911Z,8.35
2023-06-08T14:45:22.558Z,8.35
2023-06-08T14:47:53.474Z,8.27
2023-06-08T14:50:24.081Z,8.17
2023-06-08T14:52:54.718Z,8.23
2023-06-08T14:55:25.831Z,8.28
2023-06-08T14:58:00.296Z,8.27
2023-06-08T15:00:30.914Z,8.08
2023-06-08T15:03:01.692Z,8.20
2023-06-08T15:05:32.519Z,8.15
2023-06-08T15:08:03.118Z,8.17
2023-06-08T15:10:37.314Z,8.26
2023-06-08T15:13:10.180Z,8.18
2023-06-08T15:15:42.076Z,8.28
2023-06-08T15:18:15.261Z,8.18
2023-06-08T15:20:51.036Z,8.16
2023-06-08T15:23:21.563Z,8.04
2023-06-08T15:25:52.202Z,8.01
2023-06-08T15:28:24.824Z,7.96
2023-06-08T15:30:55.675Z,7.99
2023-06-08T15:33:29.351Z,8.01
2023-06-08T15:36:00.078Z,7.70
2023-06-08T15:38:32.309Z,8.01
2023-06-08T15:41:03.949Z,8.06
2023-06-08T15:43:37.884Z,8.04
2023-06-08T15:46:09.239Z,8.09
2023-06-08T15:48:39.959Z,8.05
2023-06-08T15:51:16.658Z,8.02
2023-06-08T15:53:47.612Z,7.99
2023-06-08T15:56:18.372Z,7.97
2023-06-08T15:58:51.655Z,7.92
2023-06-08T16:01:23.063Z,7.71
2023-06-08T16:03:53.800Z,7.99
2023-06-08T16:06:27.129Z,7.65
2023-06-08T16:08:57.810Z,7.99
2023-06-08T16:11:29.617Z,7.94
2023-06-08T16:14:02.727Z,7.97
2023-06-08T16:16:33.335Z,7.95
2023-06-08T16:19:05.270Z,7.87
2023-06-08T16:21:37.711Z,7.95
2023-06-08T16:24:27.914Z,7.97
2023-06-08T16:27:02.283Z,7.92
2023-06-08T16:29:35.606Z,7.97
2023-06-08T16:32:07.361Z,7.99
2023-06-08T16:34:38.057Z,7.97
2023-06-08T16:37:14.813Z,7.95
2023-06-08T16:39:45.884Z,7.96
2023-06-08T16:42:16.728Z,7.90
2023-06-08T16:44:49.192Z,7.89
2023-06-08T16:47:20.336Z,7.87
2023-06-08T16:49:50.883Z,7.84
2023-06-08T16:52:27.559Z,7.85
2023-06-08T16:54:58.231Z,7.88
2023-06-08T16:57:30.233Z,7.78
2023-06-08T17:00:05.652Z,7.76
2023-06-08T17:02:37.238Z,7.49
2023-06-08T17:05:08.772Z,7.75
2023-06-08T17:07:40.920Z,7.76
2023-06-08T17:10:14.258Z,7.81
2023-06-08T17:12:47.803Z,7.80
2023-06-08T17:15:23.425Z,7.80
2023-06-08T17:17:54.012Z,7.52
2023-06-08T17:20:24.997Z,7.80
2023-06-08T17:22:55.622Z,7.26
2023-06-08T17:25:26.282Z,7.66
2023-06-08T17:27:57.762Z,7.74
2023-06-08T17:30:32.236Z,7.75
2023-06-08T17:33:03.297Z,7.76
2023-06-08T17:35:34.168Z,7.78
2023-06-08T17:38:07.804Z,7.78
2023-06-08T17:40:39.423Z,7.72
2023-06-08T17:43:10.570Z,7.69
2023-06-08T17:45:42.871Z,7.64
2023-06-08T17:48:13.694Z,7.67
2023-06-08T17:50:49.335Z,7.60
2023-06-08T17:53:21.989Z,7.69
2023-06-08T17:55:55.536Z,7.72
2023-06-08T17:58:29.664Z,7.69
2023-06-08T18:01:02.083Z,7.66
2023-06-08T18:03:35.684Z,7.60
2023-06-08T18:06:23.374Z,7.54
2023-06-08T18:08:57.164Z,7.41
2023-06-08T18:11:31.073Z,7.53
2023-06-08T18:14:04.273Z,7.54
2023-06-08T18:16:37.891Z,7.46
2023-06-08T18:19:10.148Z,7.51
2023-06-08T18:21:49.664Z,7.51
2023-06-08T18:24:23.791Z,7.47
2023-06-08T18:26:58.262Z,7.43
2023-06-08T18:29:29.340Z,7.36
2023-06-08T18:32:07.906Z,7.34
2023-06-08T18:34:40.857Z,7.35
2023-06-08T18:37:12.593Z,7.31
2023-06-08T18:39:57.954Z,7.30
2023-06-08T18:42:29.984Z,7.25
2023-06-08T18:45:03.344Z,7.28
2023-06-08T18:47:36.260Z,7.28
2023-06-08T18:50:13.066Z,6.63
2023-06-08T18:52:46.825Z,7.32
2023-06-08T18:55:21.625Z,7.01
2023-06-08T18:57:55.142Z,7.23
2023-06-08T19:00:25.649Z,7.33
2023-06-08T19:02:58.862Z,7.28
2023-06-08T19:05:29.497Z,7.29
2023-06-08T19:08:01.018Z,7.27
2023-06-08T19:10:31.667Z,7.27
2023-06-08T19:13:02.235Z,7.28
2023-06-08T19:15:32.677Z,7.23
2023-06-08T19:18:04.867Z,7.24
2023-06-08T19:20:35.404Z,7.23
2023-06-08T19:23:05.894Z,7.24
2023-06-08T19:25:36.390Z,7.22
2023-06-08T19:28:06.993Z,7.22
2023-06-08T19:30:37.611Z,7.18
2023-06-08T19:33:09.719Z,7.20
2023-06-08T19:35:40.298Z,7.19
2023-06-08T19:38:10.853Z,7.18
2023-06-08T19:40:41.325Z,7.20
2023-06-08T19:43:11.717Z,7.23
2023-06-08T19:45:42.308Z,7.21
2023-06-08T19:48:14.485Z,7.22
2023-06-08T19:50:45.063Z,7.25
2023-06-08T19:53:15.516Z,7.29
2023-06-08T19:55:48.549Z,7.32
2023-06-08T19:58:18.942Z,7.29
2023-06-08T20:00:52.156Z,7.26
2023-06-08T20:03:24.751Z,7.26
2023-06-08T20:05:55.537Z,7.28
2023-06-08T20:08:28.644Z,7.31
2023-06-08T20:10:59.741Z,7.35
2023-06-08T20:13:30.406Z,7.43
2023-06-08T20:16:01.040Z,7.42
2023-06-08T20:18:33.165Z,7.43
2023-06-08T20:21:03.597Z,7.41
2023-06-08T20:23:34.870Z,7.44
2023-06-08T20:26:05.354Z,7.45
2023-06-08T20:28:38.903Z,7.43
2023-06-08T20:31:09.528Z,7.42
2023-06-08T20:33:41.673Z,7.42
2023-06-08T20:36:12.261Z,7.45
2023-06-08T20:38:43.911Z,7.43
2023-06-08T20:41:14.523Z,7.42
2023-06-08T20:43:45.074Z,7.39
2023-06-08T20:46:15.644Z,7.38
2023-06-08T20:48:47.925Z,7.35
2023-06-08T20:51:19.035Z,7.28
2023-06-08T20:53:49.660Z,7.30
2023-06-08T20:56:20.254Z,7.38
2023-06-08T20:58:50.772Z,7.34
2023-06-08T21:01:21.529Z,7.44
2023-06-08T21:03:53.895Z,7.47
2023-06-08T21:06:24.440Z,7.56
2023-06-08T21:08:54.982Z,7.56
2023-06-08T21:11:25.720Z,7.46
2023-06-08T21:13:56.488Z,7.49
2023-06-08T21:16:27.096Z,7.50
2023-06-08T21:18:59.454Z,7.48
2023-06-08T21:21:30.438Z,7.43
2023-06-08T21:24:01.017Z,7.38
2023-06-08T21:26:31.847Z,7.42
2023-06-08T21:29:02.328Z,7.39
2023-06-08T21:31:33.050Z,7.47
2023-06-08T21:34:05.241Z,7.43
2023-06-08T21:36:35.776Z,7.49
2023-06-08T21:39:06.746Z,7.57
2023-06-08T21:41:37.448Z,7.59
2023-06-08T21:44:08.215Z,7.57
2023-06-08T21:46:38.721Z,7.49
2023-06-08T21:49:11.584Z,7.54
2023-06-08T21:51:42.450Z,7.57
2023-06-08T21:54:13.175Z,7.52
2023-06-08T21:56:44.004Z,7.46
2023-06-08T21:59:14.575Z,7.46
2023-06-08T22:01:45.234Z,7.30
2023-06-08T22:04:17.689Z,7.60
2023-06-08T22:06:48.516Z,7.59
2023-06-08T22:09:19.551Z,7.58
2023-06-08T22:11:51.018Z,7.65
2023-06-08T22:14:21.429Z,7.65
2023-06-08T22:16:54.424Z,7.50
2023-06-08T22:19:26.549Z,7.71
2023-06-08T22:21:57.095Z,7.71
2023-06-08T22:24:27.776Z,7.72
2023-06-08T22:26:58.317Z,7.69
2023-06-08T22:29:28.902Z,7.70
2023-06-08T22:31:59.401Z,7.74
2023-06-08T22:34:31.563Z,7.64
2023-06-08T22:37:02.187Z,7.63
2023-06-08T22:39:34.930Z,7.65
2023-06-08T22:42:06.198Z,7.66
2023-06-08T22:44:36.635Z,7.80
2023-06-08T22:47:08.027Z,7.82
2023-06-08T22:49:41.226Z,7.88
2023-06-08T22:52:15.606Z,8.01
2023-06-08T22:54:46.841Z,8.04
2023-06-08T22:57:17.463Z,8.17
2023-06-08T22:59:47.977Z,8.25
2023-06-08T23:02:18.672Z,8.32
2023-06-08T23:04:50.815Z,8.26
2023-06-08T23:07:22.361Z,8.42
2023-06-08T23:09:54.791Z,8.58
2023-06-08T23:12:25.258Z,8.58
2023-06-08T23:14:55.715Z,8.56
2023-06-08T23:17:27.307Z,8.02
2023-06-08T23:20:00.282Z,8.33
2023-06-08T23:22:31.358Z,8.47
2023-06-08T23:25:02.326Z,8.54
2023-06-08T23:27:32.880Z,8.58
2023-06-08T23:30:03.903Z,8.63
2023-06-08T23:32:36.167Z,8.62
2023-06-08T23:35:12.158Z,8.67
2023-06-08T23:37:43.896Z,8.72
2023-06-08T23:40:16.922Z,8.67
2023-06-08T23:42:48.386Z,8.68
2023-06-08T23:45:20.749Z,8.68
2023-06-08T23:47:54.073Z,8.67
2023-06-08T23:50:27.574Z,8.69
2023-06-08T23:52:59.356Z,8.63
2023-06-08T23:55:30.871Z,8.62
2023-06-08T23:58:03.389Z,8.50
